sensor_id;sensor_type;location;lat;lon;timestamp;temperature;humidity
38622;DHT22;24380;51.132;5.360;2023-04-07T00:00:42;9.50;99.90
38622;DHT22;24380;51.132;5.360;2023-04-07T00:03:09;9.50;99.90
38622;DHT22;24380;51.132;5.360;2023-04-07T00:05:38;9.50;99.90
38622;DHT22;24380;51.132;5.360;2023-04-07T00:08:05;9.50;99.90
38622;DHT22;24380;51.132;5.360;2023-04-07T00:10:33;9.50;99.90
38622;DHT22;24380;51.132;5.360;2023-04-07T00:13:01;9.50;99.90
38622;DHT22;24380;51.132;5.360;2023-04-07T00:15:28;9.50;99.90
38622;DHT22;24380;51.132;5.360;2023-04-07T00:17:56;9.40;99.90
38622;DHT22;24380;51.132;5.360;2023-04-07T00:20:24;9.40;99.90
38622;DHT22;24380;51.132;5.360;2023-04-07T00:22:51;9.30;99.90
38622;DHT22;24380;51.132;5.360;2023-04-07T00:25:19;9.20;99.90
38622;DHT22;24380;51.132;5.360;2023-04-07T00:27:46;9.20;99.90
38622;DHT22;24380;51.132;5.360;2023-04-07T00:30:14;9.20;99.90
38622;DHT22;24380;51.132;5.360;2023-04-07T00:32:41;9.20;99.90
38622;DHT22;24380;51.132;5.360;2023-04-07T00:35:09;9.20;99.90
38622;DHT22;24380;51.132;5.360;2023-04-07T00:37:37;9.30;99.90
38622;DHT22;24380;51.132;5.360;2023-04-07T00:40:05;9.20;99.90
38622;DHT22;24380;51.132;5.360;2023-04-07T00:42:32;9.20;99.90
38622;DHT22;24380;51.132;5.360;2023-04-07T00:45:00;9.10;99.90
38622;DHT22;24380;51.132;5.360;2023-04-07T00:47:28;9.00;99.90
38622;DHT22;24380;51.132;5.360;2023-04-07T00:49:56;9.00;99.90
38622;DHT22;24380;51.132;5.360;2023-04-07T00:52:24;9.00;99.90
38622;DHT22;24380;51.132;5.360;2023-04-07T00:54:55;9.00;99.90
38622;DHT22;24380;51.132;5.360;2023-04-07T00:57:23;8.90;99.90
38622;DHT22;24380;51.132;5.360;2023-04-07T00:59:52;9.00;99.90
38622;DHT22;24380;51.132;5.360;2023-04-07T01:05:27;9.20;99.90
38622;DHT22;24380;51.132;5.360;2023-04-07T01:13:27;9.10;99.90
38622;DHT22;24380;51.132;5.360;2023-04-07T01:15:58;9.10;99.90
38622;DHT22;24380;51.132;5.360;2023-04-07T01:18:31;9.20;99.90
38622;DHT22;24380;51.132;5.360;2023-04-07T01:21:12;9.20;99.90
38622;DHT22;24380;51.132;5.360;2023-04-07T01:24:04;9.20;99.90
38622;DHT22;24380;51.132;5.360;2023-04-07T01:26:33;9.20;99.90
38622;DHT22;24380;51.132;5.360;2023-04-07T01:31:59;9.20;99.90
38622;DHT22;24380;51.132;5.360;2023-04-07T01:34:29;9.20;99.90
38622;DHT22;24380;51.132;5.360;2023-04-07T01:36:59;9.10;99.90
38622;DHT22;24380;51.132;5.360;2023-04-07T01:39:27;9.00;99.90
38622;DHT22;24380;51.132;5.360;2023-04-07T01:41:57;9.00;99.90
38622;DHT22;24380;51.132;5.360;2023-04-07T01:44:27;9.10;99.90
38622;DHT22;24380;51.132;5.360;2023-04-07T01:46:55;9.10;99.90
38622;DHT22;24380;51.132;5.360;2023-04-07T01:49:24;9.00;99.90
38622;DHT22;24380;51.132;5.360;2023-04-07T01:51:54;9.10;99.90
38622;DHT22;24380;51.132;5.360;2023-04-07T01:54:22;9.00;99.90
38622;DHT22;24380;51.132;5.360;2023-04-07T01:56:50;9.10;99.90
38622;DHT22;24380;51.132;5.360;2023-04-07T01:59:17;9.10;99.90
38622;DHT22;24380;51.132;5.360;2023-04-07T02:01:45;9.00;99.90
38622;DHT22;24380;51.132;5.360;2023-04-07T02:04:20;9.00;99.90
38622;DHT22;24380;51.132;5.360;2023-04-07T02:07:05;9.10;99.90
38622;DHT22;24380;51.132;5.360;2023-04-07T02:09:30;9.20;99.90
38622;DHT22;24380;51.132;5.360;2023-04-07T02:12:00;9.10;99.90
38622;DHT22;24380;51.132;5.360;2023-04-07T02:14:29;9.10;99.90
38622;DHT22;24380;51.132;5.360;2023-04-07T02:16:56;9.10;99.90
38622;DHT22;24380;51.132;5.360;2023-04-07T02:19:26;9.10;99.90
38622;DHT22;24380;51.132;5.360;2023-04-07T02:21:56;9.10;99.90
38622;DHT22;24380;51.132;5.360;2023-04-07T02:24:24;9.10;99.90
38622;DHT22;24380;51.132;5.360;2023-04-07T02:26:51;9.10;99.90
38622;DHT22;24380;51.132;5.360;2023-04-07T02:29:19;9.20;99.90
38622;DHT22;24380;51.132;5.360;2023-04-07T02:31:46;9.10;99.90
38622;DHT22;24380;51.132;5.360;2023-04-07T02:34:14;9.10;99.90
38622;DHT22;24380;51.132;5.360;2023-04-07T02:36:41;9.10;99.90
38622;DHT22;24380;51.132;5.360;2023-04-07T02:39:09;9.10;99.90
38622;DHT22;24380;51.132;5.360;2023-04-07T02:41:36;9.20;99.90
38622;DHT22;24380;51.132;5.360;2023-04-07T02:44:04;9.10;99.90
38622;DHT22;24380;51.132;5.360;2023-04-07T02:46:32;9.10;99.90
38622;DHT22;24380;51.132;5.360;2023-04-07T02:48:59;9.00;99.90
38622;DHT22;24380;51.132;5.360;2023-04-07T02:51:27;9.00;99.90
38622;DHT22;24380;51.132;5.360;2023-04-07T02:53:54;9.00;99.90
38622;DHT22;24380;51.132;5.360;2023-04-07T02:56:22;9.00;99.90
38622;DHT22;24380;51.132;5.360;2023-04-07T02:58:49;8.90;99.90
38622;DHT22;24380;51.132;5.360;2023-04-07T03:01:17;8.90;99.90
38622;DHT22;24380;51.132;5.360;2023-04-07T03:03:44;8.90;99.90
38622;DHT22;24380;51.132;5.360;2023-04-07T03:06:13;8.90;99.90
38622;DHT22;24380;51.132;5.360;2023-04-07T03:08:41;8.90;99.90
38622;DHT22;24380;51.132;5.360;2023-04-07T03:11:08;8.80;99.90
38622;DHT22;24380;51.132;5.360;2023-04-07T03:13:36;8.80;99.90
38622;DHT22;24380;51.132;5.360;2023-04-07T03:16:03;8.90;99.90
38622;DHT22;24380;51.132;5.360;2023-04-07T03:18:31;9.00;99.90
38622;DHT22;24380;51.132;5.360;2023-04-07T03:20:58;8.90;99.90
38622;DHT22;24380;51.132;5.360;2023-04-07T03:23:26;8.80;99.90
38622;DHT22;24380;51.132;5.360;2023-04-07T03:25:55;8.80;99.90
38622;DHT22;24380;51.132;5.360;2023-04-07T03:28:23;8.80;99.90
38622;DHT22;24380;51.132;5.360;2023-04-07T03:30:51;8.80;99.90
38622;DHT22;24380;51.132;5.360;2023-04-07T03:33:18;8.70;99.90
38622;DHT22;24380;51.132;5.360;2023-04-07T03:35:46;8.70;99.90
38622;DHT22;24380;51.132;5.360;2023-04-07T03:38:13;8.60;99.90
38622;DHT22;24380;51.132;5.360;2023-04-07T03:40:41;8.70;99.90
38622;DHT22;24380;51.132;5.360;2023-04-07T03:43:08;8.60;99.90
38622;DHT22;24380;51.132;5.360;2023-04-07T03:45:38;8.60;99.90
38622;DHT22;24380;51.132;5.360;2023-04-07T03:48:06;8.60;99.90
38622;DHT22;24380;51.132;5.360;2023-04-07T03:50:35;8.60;99.90
38622;DHT22;24380;51.132;5.360;2023-04-07T03:53:02;8.70;99.90
38622;DHT22;24380;51.132;5.360;2023-04-07T03:55:30;8.60;99.90
38622;DHT22;24380;51.132;5.360;2023-04-07T03:57:58;8.60;99.90
38622;DHT22;24380;51.132;5.360;2023-04-07T04:00:26;8.70;99.90
38622;DHT22;24380;51.132;5.360;2023-04-07T04:02:54;8.50;99.90
38622;DHT22;24380;51.132;5.360;2023-04-07T04:05:21;8.40;99.90
38622;DHT22;24380;51.132;5.360;2023-04-07T04:07:49;8.30;99.90
38622;DHT22;24380;51.132;5.360;2023-04-07T04:10:19;8.20;99.90
38622;DHT22;24380;51.132;5.360;2023-04-07T04:12:47;8.20;99.90
38622;DHT22;24380;51.132;5.360;2023-04-07T04:15:15;8.10;99.90
38622;DHT22;24380;51.132;5.360;2023-04-07T04:17:43;8.10;99.90
38622;DHT22;24380;51.132;5.360;2023-04-07T04:20:11;8.10;99.90
38622;DHT22;24380;51.132;5.360;2023-04-07T04:22:38;8.10;99.90
38622;DHT22;24380;51.132;5.360;2023-04-07T04:25:06;8.10;99.90
38622;DHT22;24380;51.132;5.360;2023-04-07T04:27:33;8.10;99.90
38622;DHT22;24380;51.132;5.360;2023-04-07T04:30:01;8.00;99.90
38622;DHT22;24380;51.132;5.360;2023-04-07T04:32:29;8.00;99.90
38622;DHT22;24380;51.132;5.360;2023-04-07T04:34:58;8.00;99.90
38622;DHT22;24380;51.132;5.360;2023-04-07T04:37:26;8.00;99.90
38622;DHT22;24380;51.132;5.360;2023-04-07T04:39:54;8.10;99.90
38622;DHT22;24380;51.132;5.360;2023-04-07T04:42:21;8.10;99.90
38622;DHT22;24380;51.132;5.360;2023-04-07T04:44:49;8.20;99.90
38622;DHT22;24380;51.132;5.360;2023-04-07T04:47:16;8.10;99.90
38622;DHT22;24380;51.132;5.360;2023-04-07T04:49:44;8.20;99.90
38622;DHT22;24380;51.132;5.360;2023-04-07T04:52:12;8.20;99.90
38622;DHT22;24380;51.132;5.360;2023-04-07T04:54:39;8.20;99.90
38622;DHT22;24380;51.132;5.360;2023-04-07T04:57:07;8.10;99.90
38622;DHT22;24380;51.132;5.360;2023-04-07T04:59:35;8.10;99.90
38622;DHT22;24380;51.132;5.360;2023-04-07T05:02:02;8.10;99.90
38622;DHT22;24380;51.132;5.360;2023-04-07T05:04:30;8.20;99.90
38622;DHT22;24380;51.132;5.360;2023-04-07T05:06:57;8.10;99.90
38622;DHT22;24380;51.132;5.360;2023-04-07T05:09:25;8.00;99.90
38622;DHT22;24380;51.132;5.360;2023-04-07T05:11:52;8.00;99.90
38622;DHT22;24380;51.132;5.360;2023-04-07T05:14:20;8.00;99.90
38622;DHT22;24380;51.132;5.360;2023-04-07T05:16:48;8.00;99.90
38622;DHT22;24380;51.132;5.360;2023-04-07T05:19:15;8.00;99.90
38622;DHT22;24380;51.132;5.360;2023-04-07T05:21:43;7.90;99.90
38622;DHT22;24380;51.132;5.360;2023-04-07T05:24:10;7.90;99.90
38622;DHT22;24380;51.132;5.360;2023-04-07T05:26:38;7.90;99.90
38622;DHT22;24380;51.132;5.360;2023-04-07T05:29:05;7.90;99.90
38622;DHT22;24380;51.132;5.360;2023-04-07T05:31:33;7.90;99.90
38622;DHT22;24380;51.132;5.360;2023-04-07T05:34:02;7.90;99.90
38622;DHT22;24380;51.132;5.360;2023-04-07T05:36:30;8.00;99.90
38622;DHT22;24380;51.132;5.360;2023-04-07T05:38:58;8.00;99.90
38622;DHT22;24380;51.132;5.360;2023-04-07T05:41:25;8.00;99.90
38622;DHT22;24380;51.132;5.360;2023-04-07T05:43:53;8.00;99.90
38622;DHT22;24380;51.132;5.360;2023-04-07T05:46:20;8.00;99.90
38622;DHT22;24380;51.132;5.360;2023-04-07T05:48:48;8.10;99.90
38622;DHT22;24380;51.132;5.360;2023-04-07T05:51:15;8.10;99.90
38622;DHT22;24380;51.132;5.360;2023-04-07T05:53:43;8.10;99.90
38622;DHT22;24380;51.132;5.360;2023-04-07T05:56:10;8.20;99.90
38622;DHT22;24380;51.132;5.360;2023-04-07T05:58:38;8.20;99.90
38622;DHT22;24380;51.132;5.360;2023-04-07T06:01:05;8.30;99.90
38622;DHT22;24380;51.132;5.360;2023-04-07T06:03:33;8.30;99.90
38622;DHT22;24380;51.132;5.360;2023-04-07T06:06:00;8.30;99.90
38622;DHT22;24380;51.132;5.360;2023-04-07T06:08:28;8.30;99.90
38622;DHT22;24380;51.132;5.360;2023-04-07T06:10:56;8.20;99.90
38622;DHT22;24380;51.132;5.360;2023-04-07T06:13:23;8.20;99.90
38622;DHT22;24380;51.132;5.360;2023-04-07T06:15:51;8.10;99.90
38622;DHT22;24380;51.132;5.360;2023-04-07T06:18:18;8.10;99.90
38622;DHT22;24380;51.132;5.360;2023-04-07T06:20:46;8.10;99.90
38622;DHT22;24380;51.132;5.360;2023-04-07T06:23:13;8.10;99.90
38622;DHT22;24380;51.132;5.360;2023-04-07T06:25:41;8.20;99.90
38622;DHT22;24380;51.132;5.360;2023-04-07T06:28:09;8.20;99.90
38622;DHT22;24380;51.132;5.360;2023-04-07T06:30:36;8.30;99.90
38622;DHT22;24380;51.132;5.360;2023-04-07T06:33:04;8.20;99.90
38622;DHT22;24380;51.132;5.360;2023-04-07T06:35:32;8.20;99.90
38622;DHT22;24380;51.132;5.360;2023-04-07T06:37:59;8.40;99.90
38622;DHT22;24380;51.132;5.360;2023-04-07T06:40:27;8.30;99.90
38622;DHT22;24380;51.132;5.360;2023-04-07T06:42:55;8.40;99.90
38622;DHT22;24380;51.132;5.360;2023-04-07T06:45:23;8.50;99.90
38622;DHT22;24380;51.132;5.360;2023-04-07T06:47:50;8.50;99.90
38622;DHT22;24380;51.132;5.360;2023-04-07T06:50:18;8.40;99.90
38622;DHT22;24380;51.132;5.360;2023-04-07T06:52:47;8.30;99.90
38622;DHT22;24380;51.132;5.360;2023-04-07T06:55:15;8.40;99.90
38622;DHT22;24380;51.132;5.360;2023-04-07T06:57:42;8.40;99.90
38622;DHT22;24380;51.132;5.360;2023-04-07T07:00:10;8.40;99.90
38622;DHT22;24380;51.132;5.360;2023-04-07T07:02:37;8.40;99.90
38622;DHT22;24380;51.132;5.360;2023-04-07T07:05:05;8.40;99.90
38622;DHT22;24380;51.132;5.360;2023-04-07T07:07:33;8.40;99.90
38622;DHT22;24380;51.132;5.360;2023-04-07T07:10:01;8.60;99.90
38622;DHT22;24380;51.132;5.360;2023-04-07T07:12:28;8.70;99.90
38622;DHT22;24380;51.132;5.360;2023-04-07T07:14:56;8.80;99.90
38622;DHT22;24380;51.132;5.360;2023-04-07T07:17:23;8.90;99.90
38622;DHT22;24380;51.132;5.360;2023-04-07T07:19:51;9.10;99.90
38622;DHT22;24380;51.132;5.360;2023-04-07T07:22:18;9.10;99.90
38622;DHT22;24380;51.132;5.360;2023-04-07T07:24:46;9.10;99.90
38622;DHT22;24380;51.132;5.360;2023-04-07T07:27:14;9.20;99.90
38622;DHT22;24380;51.132;5.360;2023-04-07T07:29:41;9.20;99.90
38622;DHT22;24380;51.132;5.360;2023-04-07T07:32:09;9.20;99.90
38622;DHT22;24380;51.132;5.360;2023-04-07T07:34:36;9.20;99.90
38622;DHT22;24380;51.132;5.360;2023-04-07T07:37:04;9.20;99.90
38622;DHT22;24380;51.132;5.360;2023-04-07T07:39:31;9.10;99.90
38622;DHT22;24380;51.132;5.360;2023-04-07T07:41:59;9.20;99.90
38622;DHT22;24380;51.132;5.360;2023-04-07T07:44:26;9.30;99.90
38622;DHT22;24380;51.132;5.360;2023-04-07T07:46:54;9.20;99.90
38622;DHT22;24380;51.132;5.360;2023-04-07T07:49:21;9.30;99.90
38622;DHT22;24380;51.132;5.360;2023-04-07T07:51:49;9.20;99.90
38622;DHT22;24380;51.132;5.360;2023-04-07T07:54:17;9.30;99.90
38622;DHT22;24380;51.132;5.360;2023-04-07T07:56:44;9.40;99.90
38622;DHT22;24380;51.132;5.360;2023-04-07T07:59:12;9.30;99.90
38622;DHT22;24380;51.132;5.360;2023-04-07T08:01:39;9.30;99.90
38622;DHT22;24380;51.132;5.360;2023-04-07T08:04:07;9.40;99.90
38622;DHT22;24380;51.132;5.360;2023-04-07T08:06:34;9.50;99.90
38622;DHT22;24380;51.132;5.360;2023-04-07T08:09:02;9.60;99.90
38622;DHT22;24380;51.132;5.360;2023-04-07T08:11:31;9.60;99.90
38622;DHT22;24380;51.132;5.360;2023-04-07T08:13:59;9.50;99.90
38622;DHT22;24380;51.132;5.360;2023-04-07T08:16:26;9.80;99.90
38622;DHT22;24380;51.132;5.360;2023-04-07T08:18:54;9.90;99.90
38622;DHT22;24380;51.132;5.360;2023-04-07T08:21:21;10.10;99.90
38622;DHT22;24380;51.132;5.360;2023-04-07T08:23:49;10.20;99.90
38622;DHT22;24380;51.132;5.360;2023-04-07T08:26:16;10.40;99.90
38622;DHT22;24380;51.132;5.360;2023-04-07T08:28:44;10.60;99.90
38622;DHT22;24380;51.132;5.360;2023-04-07T08:31:11;11.00;99.90
38622;DHT22;24380;51.132;5.360;2023-04-07T08:33:39;11.60;99.90
38622;DHT22;24380;51.132;5.360;2023-04-07T08:36:06;11.40;99.90
38622;DHT22;24380;51.132;5.360;2023-04-07T08:38:34;11.40;99.90
38622;DHT22;24380;51.132;5.360;2023-04-07T08:41:10;11.50;99.90
38622;DHT22;24380;51.132;5.360;2023-04-07T08:43:39;11.50;99.90
38622;DHT22;24380;51.132;5.360;2023-04-07T08:46:09;11.50;99.90
38622;DHT22;24380;51.132;5.360;2023-04-07T08:48:38;11.50;99.90
38622;DHT22;24380;51.132;5.360;2023-04-07T08:51:07;11.30;99.90
38622;DHT22;24380;51.132;5.360;2023-04-07T08:53:41;11.10;99.90
38622;DHT22;24380;51.132;5.360;2023-04-07T08:56:10;10.90;99.90
38622;DHT22;24380;51.132;5.360;2023-04-07T08:58:38;10.90;99.90
38622;DHT22;24380;51.132;5.360;2023-04-07T09:01:07;10.80;99.90
38622;DHT22;24380;51.132;5.360;2023-04-07T09:03:35;10.80;99.90
38622;DHT22;24380;51.132;5.360;2023-04-07T09:06:03;10.70;99.90
38622;DHT22;24380;51.132;5.360;2023-04-07T09:08:31;10.50;99.90
38622;DHT22;24380;51.132;5.360;2023-04-07T09:10:59;10.40;99.90
38622;DHT22;24380;51.132;5.360;2023-04-07T09:13:26;10.50;99.90
38622;DHT22;24380;51.132;5.360;2023-04-07T09:15:54;10.70;99.90
38622;DHT22;24380;51.132;5.360;2023-04-07T09:18:21;10.70;99.90
38622;DHT22;24380;51.132;5.360;2023-04-07T09:21:00;10.60;99.90
38622;DHT22;24380;51.132;5.360;2023-04-07T09:23:33;10.40;99.90
38622;DHT22;24380;51.132;5.360;2023-04-07T09:26:19;10.40;99.90
38622;DHT22;24380;51.132;5.360;2023-04-07T09:28:58;10.30;99.90
38622;DHT22;24380;51.132;5.360;2023-04-07T09:31:46;10.30;99.90
38622;DHT22;24380;51.132;5.360;2023-04-07T09:34:30;10.10;99.90
38622;DHT22;24380;51.132;5.360;2023-04-07T09:36:58;9.90;99.90
38622;DHT22;24380;51.132;5.360;2023-04-07T09:39:26;10.00;99.90
38622;DHT22;24380;51.132;5.360;2023-04-07T09:41:54;9.90;99.90
38622;DHT22;24380;51.132;5.360;2023-04-07T09:44:22;10.00;99.90
38622;DHT22;24380;51.132;5.360;2023-04-07T09:46:57;10.20;99.90
38622;DHT22;24380;51.132;5.360;2023-04-07T09:49:25;10.30;99.90
38622;DHT22;24380;51.132;5.360;2023-04-07T09:51:58;10.30;99.90
38622;DHT22;24380;51.132;5.360;2023-04-07T09:54:36;10.30;99.90
38622;DHT22;24380;51.132;5.360;2023-04-07T09:57:07;10.30;99.90
38622;DHT22;24380;51.132;5.360;2023-04-07T09:59:36;10.50;99.90
38622;DHT22;24380;51.132;5.360;2023-04-07T10:02:05;10.70;99.90
38622;DHT22;24380;51.132;5.360;2023-04-07T10:04:32;10.80;99.90
38622;DHT22;24380;51.132;5.360;2023-04-07T10:07:00;10.60;99.90
38622;DHT22;24380;51.132;5.360;2023-04-07T10:09:30;10.60;99.90
38622;DHT22;24380;51.132;5.360;2023-04-07T10:11:58;10.40;99.90
38622;DHT22;24380;51.132;5.360;2023-04-07T10:14:30;10.30;99.90
38622;DHT22;24380;51.132;5.360;2023-04-07T10:16:56;10.30;99.90
38622;DHT22;24380;51.132;5.360;2023-04-07T10:19:25;10.30;99.90
38622;DHT22;24380;51.132;5.360;2023-04-07T10:21:54;10.40;99.90
38622;DHT22;24380;51.132;5.360;2023-04-07T10:24:41;10.40;99.90
38622;DHT22;24380;51.132;5.360;2023-04-07T10:27:08;10.50;99.90
38622;DHT22;24380;51.132;5.360;2023-04-07T10:29:39;10.80;99.90
38622;DHT22;24380;51.132;5.360;2023-04-07T10:32:07;11.10;99.90
38622;DHT22;24380;51.132;5.360;2023-04-07T10:37:24;11.60;99.90
38622;DHT22;24380;51.132;5.360;2023-04-07T10:45:08;11.40;99.90
38622;DHT22;24380;51.132;5.360;2023-04-07T10:50:24;11.90;99.90
38622;DHT22;24380;51.132;5.360;2023-04-07T10:53:06;12.60;99.90
38622;DHT22;24380;51.132;5.360;2023-04-07T10:55:41;12.80;99.90
38622;DHT22;24380;51.132;5.360;2023-04-07T11:03:36;12.80;99.90
38622;DHT22;24380;51.132;5.360;2023-04-07T11:06:11;12.80;99.90
38622;DHT22;24380;51.132;5.360;2023-04-07T11:08:44;12.80;99.90
38622;DHT22;24380;51.132;5.360;2023-04-07T11:11:14;12.80;99.90
38622;DHT22;24380;51.132;5.360;2023-04-07T11:13:47;12.40;99.90
38622;DHT22;24380;51.132;5.360;2023-04-07T11:16:33;12.50;99.90
38622;DHT22;24380;51.132;5.360;2023-04-07T11:18:45;12.50;99.90
38622;DHT22;24380;51.132;5.360;2023-04-07T11:21:18;12.40;99.90
38622;DHT22;24380;51.132;5.360;2023-04-07T11:23:46;12.20;99.90
38622;DHT22;24380;51.132;5.360;2023-04-07T11:26:14;12.30;99.90
38622;DHT22;24380;51.132;5.360;2023-04-07T11:28:47;12.40;99.90
38622;DHT22;24380;51.132;5.360;2023-04-07T11:31:23;12.30;99.90
38622;DHT22;24380;51.132;5.360;2023-04-07T11:33:56;12.30;99.90
38622;DHT22;24380;51.132;5.360;2023-04-07T11:36:32;12.10;99.90
38622;DHT22;24380;51.132;5.360;2023-04-07T11:39:00;11.90;99.90
38622;DHT22;24380;51.132;5.360;2023-04-07T11:41:30;11.50;99.90
38622;DHT22;24380;51.132;5.360;2023-04-07T11:44:09;11.30;99.90
38622;DHT22;24380;51.132;5.360;2023-04-07T11:46:54;11.20;99.90
38622;DHT22;24380;51.132;5.360;2023-04-07T11:49:22;11.20;99.90
38622;DHT22;24380;51.132;5.360;2023-04-07T11:52:01;11.10;99.90
38622;DHT22;24380;51.132;5.360;2023-04-07T11:54:45;11.20;99.90
38622;DHT22;24380;51.132;5.360;2023-04-07T11:57:14;11.30;99.90
38622;DHT22;24380;51.132;5.360;2023-04-07T11:59:43;11.40;99.90
38622;DHT22;24380;51.132;5.360;2023-04-07T12:02:11;11.40;99.90
38622;DHT22;24380;51.132;5.360;2023-04-07T12:04:54;11.60;99.90
38622;DHT22;24380;51.132;5.360;2023-04-07T12:07:10;11.60;99.90
38622;DHT22;24380;51.132;5.360;2023-04-07T12:09:39;11.90;99.90
38622;DHT22;24380;51.132;5.360;2023-04-07T12:12:07;11.90;99.90
38622;DHT22;24380;51.132;5.360;2023-04-07T12:14:36;12.00;99.90
38622;DHT22;24380;51.132;5.360;2023-04-07T12:17:04;12.00;99.90
38622;DHT22;24380;51.132;5.360;2023-04-07T12:19:33;11.90;99.90
38622;DHT22;24380;51.132;5.360;2023-04-07T12:22:02;11.70;99.90
38622;DHT22;24380;51.132;5.360;2023-04-07T12:24:30;11.80;99.90
38622;DHT22;24380;51.132;5.360;2023-04-07T12:26:58;11.70;99.90
38622;DHT22;24380;51.132;5.360;2023-04-07T12:29:25;11.70;99.90
38622;DHT22;24380;51.132;5.360;2023-04-07T12:31:53;11.70;99.90
38622;DHT22;24380;51.132;5.360;2023-04-07T12:34:21;11.70;99.90
38622;DHT22;24380;51.132;5.360;2023-04-07T12:36:49;11.50;99.90
38622;DHT22;24380;51.132;5.360;2023-04-07T12:39:17;11.40;99.90
38622;DHT22;24380;51.132;5.360;2023-04-07T12:41:44;11.30;99.90
38622;DHT22;24380;51.132;5.360;2023-04-07T12:44:14;11.30;99.90
38622;DHT22;24380;51.132;5.360;2023-04-07T12:46:42;11.40;99.90
38622;DHT22;24380;51.132;5.360;2023-04-07T12:49:09;11.50;99.90
38622;DHT22;24380;51.132;5.360;2023-04-07T12:51:37;11.50;99.90
38622;DHT22;24380;51.132;5.360;2023-04-07T12:54:05;11.50;99.90
38622;DHT22;24380;51.132;5.360;2023-04-07T12:56:33;11.50;99.90
38622;DHT22;24380;51.132;5.360;2023-04-07T12:59:00;11.50;99.90
38622;DHT22;24380;51.132;5.360;2023-04-07T13:01:28;11.50;99.90
38622;DHT22;24380;51.132;5.360;2023-04-07T13:03:55;11.40;99.90
38622;DHT22;24380;51.132;5.360;2023-04-07T13:06:23;11.40;99.90
38622;DHT22;24380;51.132;5.360;2023-04-07T13:08:51;11.40;99.90
38622;DHT22;24380;51.132;5.360;2023-04-07T13:11:18;11.50;99.90
38622;DHT22;24380;51.132;5.360;2023-04-07T13:13:47;11.50;99.90
38622;DHT22;24380;51.132;5.360;2023-04-07T13:16:14;11.50;99.90
38622;DHT22;24380;51.132;5.360;2023-04-07T13:18:42;11.40;99.90
38622;DHT22;24380;51.132;5.360;2023-04-07T13:21:10;11.30;99.90
38622;DHT22;24380;51.132;5.360;2023-04-07T13:23:37;11.40;99.90
38622;DHT22;24380;51.132;5.360;2023-04-07T13:26:05;11.40;99.90
38622;DHT22;24380;51.132;5.360;2023-04-07T13:28:32;11.40;99.90
38622;DHT22;24380;51.132;5.360;2023-04-07T13:31:00;11.40;99.90
38622;DHT22;24380;51.132;5.360;2023-04-07T13:33:27;11.30;99.90
38622;DHT22;24380;51.132;5.360;2023-04-07T13:35:55;11.30;99.90
38622;DHT22;24380;51.132;5.360;2023-04-07T13:38:22;11.30;99.90
38622;DHT22;24380;51.132;5.360;2023-04-07T13:40:50;11.30;99.90
38622;DHT22;24380;51.132;5.360;2023-04-07T13:43:17;11.40;99.90
38622;DHT22;24380;51.132;5.360;2023-04-07T13:45:46;11.60;99.90
38622;DHT22;24380;51.132;5.360;2023-04-07T13:48:14;11.70;99.90
38622;DHT22;24380;51.132;5.360;2023-04-07T13:50:42;11.60;99.90
38622;DHT22;24380;51.132;5.360;2023-04-07T13:53:09;11.60;99.90
38622;DHT22;24380;51.132;5.360;2023-04-07T13:55:38;11.70;99.90
38622;DHT22;24380;51.132;5.360;2023-04-07T13:58:06;11.60;99.90
38622;DHT22;24380;51.132;5.360;2023-04-07T14:00:33;11.70;99.90
38622;DHT22;24380;51.132;5.360;2023-04-07T14:03:03;11.80;99.90
38622;DHT22;24380;51.132;5.360;2023-04-07T14:05:30;12.00;99.90
38622;DHT22;24380;51.132;5.360;2023-04-07T14:07:58;12.00;99.90
38622;DHT22;24380;51.132;5.360;2023-04-07T14:10:25;12.00;99.90
38622;DHT22;24380;51.132;5.360;2023-04-07T14:12:53;12.00;99.90
38622;DHT22;24380;51.132;5.360;2023-04-07T14:15:20;12.00;99.90
38622;DHT22;24380;51.132;5.360;2023-04-07T14:17:48;12.00;99.90
38622;DHT22;24380;51.132;5.360;2023-04-07T14:20:16;11.90;99.90
38622;DHT22;24380;51.132;5.360;2023-04-07T14:22:43;11.90;99.90
38622;DHT22;24380;51.132;5.360;2023-04-07T14:25:11;11.80;99.90
38622;DHT22;24380;51.132;5.360;2023-04-07T14:27:38;12.00;99.90
38622;DHT22;24380;51.132;5.360;2023-04-07T14:30:07;11.90;99.90
38622;DHT22;24380;51.132;5.360;2023-04-07T14:32:34;12.00;99.90
38622;DHT22;24380;51.132;5.360;2023-04-07T14:35:02;12.00;99.90
38622;DHT22;24380;51.132;5.360;2023-04-07T14:37:30;12.00;99.90
38622;DHT22;24380;51.132;5.360;2023-04-07T14:39:57;12.00;99.90
38622;DHT22;24380;51.132;5.360;2023-04-07T14:42:25;11.90;99.90
38622;DHT22;24380;51.132;5.360;2023-04-07T14:44:55;11.90;99.90
38622;DHT22;24380;51.132;5.360;2023-04-07T14:47:22;12.10;99.90
38622;DHT22;24380;51.132;5.360;2023-04-07T14:49:51;12.10;99.90
38622;DHT22;24380;51.132;5.360;2023-04-07T14:52:18;12.00;99.90
38622;DHT22;24380;51.132;5.360;2023-04-07T14:54:47;12.10;99.90
38622;DHT22;24380;51.132;5.360;2023-04-07T14:57:14;12.10;99.90
38622;DHT22;24380;51.132;5.360;2023-04-07T14:59:42;12.00;99.90
38622;DHT22;24380;51.132;5.360;2023-04-07T15:02:09;11.90;99.90
38622;DHT22;24380;51.132;5.360;2023-04-07T15:04:37;12.00;99.90
38622;DHT22;24380;51.132;5.360;2023-04-07T15:07:05;11.90;99.90
38622;DHT22;24380;51.132;5.360;2023-04-07T15:09:32;11.60;99.90
38622;DHT22;24380;51.132;5.360;2023-04-07T15:12:00;11.50;99.90
38622;DHT22;24380;51.132;5.360;2023-04-07T15:14:27;11.50;99.90
38622;DHT22;24380;51.132;5.360;2023-04-07T15:16:55;11.20;99.90
38622;DHT22;24380;51.132;5.360;2023-04-07T15:19:22;11.20;99.90
38622;DHT22;24380;51.132;5.360;2023-04-07T15:21:50;11.30;99.90
38622;DHT22;24380;51.132;5.360;2023-04-07T15:24:17;11.40;99.90
38622;DHT22;24380;51.132;5.360;2023-04-07T15:26:47;11.50;99.90
38622;DHT22;24380;51.132;5.360;2023-04-07T15:29:15;11.50;99.90
38622;DHT22;24380;51.132;5.360;2023-04-07T15:31:42;11.50;99.90
38622;DHT22;24380;51.132;5.360;2023-04-07T15:34:10;11.50;99.90
38622;DHT22;24380;51.132;5.360;2023-04-07T15:36:38;11.60;99.90
38622;DHT22;24380;51.132;5.360;2023-04-07T15:39:06;11.70;99.90
38622;DHT22;24380;51.132;5.360;2023-04-07T15:41:33;11.60;99.90
38622;DHT22;24380;51.132;5.360;2023-04-07T15:44:02;11.60;99.90
38622;DHT22;24380;51.132;5.360;2023-04-07T15:46:30;11.40;99.90
38622;DHT22;24380;51.132;5.360;2023-04-07T15:48:58;11.40;99.90
38622;DHT22;24380;51.132;5.360;2023-04-07T15:51:26;11.60;99.90
38622;DHT22;24380;51.132;5.360;2023-04-07T15:53:55;11.60;99.90
38622;DHT22;24380;51.132;5.360;2023-04-07T15:56:22;11.60;99.90
38622;DHT22;24380;51.132;5.360;2023-04-07T15:58:50;11.60;99.90
38622;DHT22;24380;51.132;5.360;2023-04-07T16:01:17;11.60;99.90
38622;DHT22;24380;51.132;5.360;2023-04-07T16:03:45;11.70;99.90
38622;DHT22;24380;51.132;5.360;2023-04-07T16:06:13;11.60;99.90
38622;DHT22;24380;51.132;5.360;2023-04-07T16:08:40;11.30;99.90
38622;DHT22;24380;51.132;5.360;2023-04-07T16:11:08;11.30;99.90
38622;DHT22;24380;51.132;5.360;2023-04-07T16:13:35;11.30;99.90
38622;DHT22;24380;51.132;5.360;2023-04-07T16:16:03;11.30;99.90